Cdry Blue — ICOB — position and weather

sailwx.info

Track history (hours):
 
Tides and Currents Weather Stations Pressure Air Temp Water Temp Dewpoint Dewpoint Depression Visibility Wind Speed Wind Dir Waves Ship Positions

Cdry Blue

Last reported at 2015-Sep-02 10:13 UTC. Time now 2015-Sep-05 07:53 UTC.
Position N 40°22' E 006°02'.

Length 108 m; draft 5.6 m.

Type: Cargo ship. MMSI: 247289300.

Date/timePositionNaut miles runAvg speedWind from/ knotsBaromVisibWave heightAir tempDewpointWater temp
2015-Sep-02 10:13N 40°22' E 006°02'11212.4
2015-Sep-02 01:15N 40°53' E 003°41'912.1
2015-Sep-02 00:31N 40°56' E 003°29'6011.8
2015-Sep-01 19:25N 41°16' E 002°14'6 1.0
2015-Sep-01 13:22N 41°21' E 002°09'0 0.0
2015-Sep-01 12:07N 41°21' E 002°09'0 0.0
2015-Sep-01 11:16N 41°21' E 002°09'0 0.0
2015-Sep-01 00:10N 41°21' E 002°09'0 0.0
2015-Aug-31 21:16N 41°21' E 002°09'0 0.0
2015-Aug-31 18:16N 41°21' E 002°09'0 0.0
2015-Aug-30 18:28N 41°21' E 002°09'0 0.0
2015-Aug-30 17:28N 41°21' E 002°09'0 0.2
2015-Aug-30 15:33N 41°21' E 002°10'1 1.3
2015-Aug-30 14:33N 41°20' E 002°11'0 0.3
2015-Aug-30 13:13N 41°20' E 002°11'0 0.0
2015-Aug-30 03:19N 41°20' E 002°11'0 0.0
2015-Aug-30 02:31N 41°20' E 002°11'0 0.0
2015-Aug-30 01:31N 41°20' E 002°11'0 0.0
2015-Aug-30 00:31N 41°20' E 002°11'0 0.0
2015-Aug-29 23:31N 41°20' E 002°11'0 0.0
2015-Aug-29 22:25N 41°20' E 002°11'0 0.0
2015-Aug-29 21:13N 41°20' E 002°11'0 0.0
2015-Aug-29 20:31N 41°20' E 002°11'0 0.0
2015-Aug-29 18:16N 41°20' E 002°11'0 0.0
2015-Aug-29 17:25N 41°20' E 002°11'0 0.0
2015-Aug-29 16:25N 41°20' E 002°11'0 0.0
2015-Aug-29 15:07N 41°20' E 002°11'0 0.0
2015-Aug-29 14:25N 41°20' E 002°11'0 0.0
2015-Aug-29 13:25N 41°20' E 002°11'0 0.0
2015-Aug-29 11:31N 41°20' E 002°11'0 0.0
2015-Aug-29 10:19N 41°20' E 002°11'0 0.0
2015-Aug-29 08:13N 41°20' E 002°11'0 0.0
2015-Aug-29 07:31N 41°20' E 002°11'0 0.0
2015-Aug-29 06:31N 41°20' E 002°11'0 0.0
2015-Aug-29 05:31N 41°20' E 002°11'0 0.0
2015-Aug-29 04:31N 41°20' E 002°11'0 0.0
2015-Aug-29 03:31N 41°20' E 002°11'0 0.0
2015-Aug-29 01:31N 41°20' E 002°11'0 0.0
2015-Aug-29 00:07N 41°20' E 002°11'0 0.0
2015-Aug-28 21:31N 41°20' E 002°11'0 0.0
2015-Aug-28 16:25N 41°20' E 002°11'0 0.0
2015-Aug-28 15:31N 41°20' E 002°11'0 0.0
2015-Aug-28 13:19N 41°20' E 002°11'0 0.0
2015-Aug-28 05:07N 41°20' E 002°11'0 0.0
2015-Aug-28 04:31N 41°20' E 002°11'0 0.0
2015-Aug-28 03:31N 41°20' E 002°11'0 0.0
2015-Aug-28 02:07N 41°20' E 002°11'0 0.0
2015-Aug-28 01:19N 41°20' E 002°11'0 0.0
2015-Aug-27 22:22N 41°20' E 002°11'0 0.0
2015-Aug-27 21:25N 41°20' E 002°11'0 0.0
2015-Aug-27 19:25N 41°20' E 002°11'0 0.0
2015-Aug-27 17:31N 41°20' E 002°11'0 0.0
2015-Aug-27 16:31N 41°20' E 002°11'0 0.0
2015-Aug-27 15:25N 41°20' E 002°11'0 0.0
2015-Aug-27 08:33N 41°20' E 002°11'0 0.0
2015-Aug-27 07:33N 41°20' E 002°11'0 0.1
2015-Aug-27 06:30N 41°20' E 002°11'7 6.8
2015-Aug-27 05:29N 41°13' E 002°10'1010.4
2015-Aug-27 04:33N 41°04' E 002°07'1010.0
2015-Aug-27 03:33N 40°55' E 002°02'10 9.9
2015-Aug-27 02:31N 40°47' E 001°53'1010.7
2015-Aug-27 01:33N 40°41' E 001°42'4710.8
2015-Aug-26 21:12N 40°13' E 000°52'1010.8
2015-Aug-26 20:17N 40°07' E 000°42'910.7
2015-Aug-26 19:24N 40°01' E 000°32'41 2.6
2015-Aug-26 03:29N 39°39' W 000°13'58 9.8
2015-Aug-25 21:33N 40°11' E 000°51'1110.2
2015-Aug-25 20:31N 40°17' E 001°02'1010.0
2015-Aug-25 19:34N 40°23' E 001°12'1010.1
2015-Aug-25 18:33N 40°29' E 001°23'1010.3
2015-Aug-25 17:34N 40°35' E 001°33'1010.4
2015-Aug-25 16:33N 40°41' E 001°44'1010.3
2015-Aug-25 15:33N 40°48' E 001°55'10 9.7
2015-Aug-25 14:33N 40°56' E 002°02'10 9.8
2015-Aug-25 13:33N 41°05' E 002°05'14 1.1
2015-Aug-25 00:32N 41°14' E 002°20'1111.6
2015-Aug-24 23:32N 41°09' E 002°34'1211.4
2015-Aug-24 22:31N 41°03' E 002°47'1111.3
2015-Aug-24 21:33N 40°58' E 002°60'1111.2
2015-Aug-24 20:33N 40°52' E 003°13'1111.0
2015-Aug-24 19:33N 40°47' E 003°25'15710.3
2015-Aug-24 04:15N 39°31' E 006°26'11310.6
2015-Aug-23 17:32N 38°40' E 008°36'1211.2
2015-Aug-23 16:30N 38°40' E 008°51'  
Track history (hours):
 
Tides and Currents Weather Stations Pressure Air Temp Water Temp Dewpoint Dewpoint Depression Visibility Wind Speed Wind Dir Waves Ship Positions

Cdry Blue

Last reported at 2015-Sep-02 10:13 UTC. Time now 2015-Sep-05 07:53 UTC.
Position N 40°22' E 006°02'.

Length 108 m; draft 5.6 m.

Type: Cargo ship. MMSI: 247289300.

Date/timePositionNaut miles runAvg speedWind from/ knotsBaromVisibWave heightAir tempDewpointWater temp
2015-Sep-02 10:13N 40°22' E 006°02'11212.4
2015-Sep-02 01:15N 40°53' E 003°41'912.1
2015-Sep-02 00:31N 40°56' E 003°29'6011.8
2015-Sep-01 19:25N 41°16' E 002°14'6 1.0
2015-Sep-01 13:22N 41°21' E 002°09'0 0.0
2015-Sep-01 12:07N 41°21' E 002°09'0 0.0
2015-Sep-01 11:16N 41°21' E 002°09'0 0.0
2015-Sep-01 00:10N 41°21' E 002°09'0 0.0
2015-Aug-31 21:16N 41°21' E 002°09'0 0.0
2015-Aug-31 18:16N 41°21' E 002°09'0 0.0
2015-Aug-30 18:28N 41°21' E 002°09'0 0.0
2015-Aug-30 17:28N 41°21' E 002°09'0 0.2
2015-Aug-30 15:33N 41°21' E 002°10'1 1.3
2015-Aug-30 14:33N 41°20' E 002°11'0 0.3
2015-Aug-30 13:13N 41°20' E 002°11'0 0.0
2015-Aug-30 03:19N 41°20' E 002°11'0 0.0
2015-Aug-30 02:31N 41°20' E 002°11'0 0.0
2015-Aug-30 01:31N 41°20' E 002°11'0 0.0
2015-Aug-30 00:31N 41°20' E 002°11'0 0.0
2015-Aug-29 23:31N 41°20' E 002°11'0 0.0
2015-Aug-29 22:25N 41°20' E 002°11'0 0.0
2015-Aug-29 21:13N 41°20' E 002°11'0 0.0
2015-Aug-29 20:31N 41°20' E 002°11'0 0.0
2015-Aug-29 18:16N 41°20' E 002°11'0 0.0
2015-Aug-29 17:25N 41°20' E 002°11'0 0.0
2015-Aug-29 16:25N 41°20' E 002°11'0 0.0
2015-Aug-29 15:07N 41°20' E 002°11'0 0.0
2015-Aug-29 14:25N 41°20' E 002°11'0 0.0
2015-Aug-29 13:25N 41°20' E 002°11'0 0.0
2015-Aug-29 11:31N 41°20' E 002°11'0 0.0
2015-Aug-29 10:19N 41°20' E 002°11'0 0.0
2015-Aug-29 08:13N 41°20' E 002°11'0 0.0
2015-Aug-29 07:31N 41°20' E 002°11'0 0.0
2015-Aug-29 06:31N 41°20' E 002°11'0 0.0
2015-Aug-29 05:31N 41°20' E 002°11'0 0.0
2015-Aug-29 04:31N 41°20' E 002°11'0 0.0
2015-Aug-29 03:31N 41°20' E 002°11'0 0.0
2015-Aug-29 01:31N 41°20' E 002°11'0 0.0
2015-Aug-29 00:07N 41°20' E 002°11'0 0.0
2015-Aug-28 21:31N 41°20' E 002°11'0 0.0
2015-Aug-28 16:25N 41°20' E 002°11'0 0.0
2015-Aug-28 15:31N 41°20' E 002°11'0 0.0
2015-Aug-28 13:19N 41°20' E 002°11'0 0.0
2015-Aug-28 05:07N 41°20' E 002°11'0 0.0
2015-Aug-28 04:31N 41°20' E 002°11'0 0.0
2015-Aug-28 03:31N 41°20' E 002°11'0 0.0
2015-Aug-28 02:07N 41°20' E 002°11'0 0.0
2015-Aug-28 01:19N 41°20' E 002°11'0 0.0
2015-Aug-27 22:22N 41°20' E 002°11'0 0.0
2015-Aug-27 21:25N 41°20' E 002°11'0 0.0
2015-Aug-27 19:25N 41°20' E 002°11'0 0.0
2015-Aug-27 17:31N 41°20' E 002°11'0 0.0
2015-Aug-27 16:31N 41°20' E 002°11'0 0.0
2015-Aug-27 15:25N 41°20' E 002°11'0 0.0
2015-Aug-27 08:33N 41°20' E 002°11'0 0.0
2015-Aug-27 07:33N 41°20' E 002°11'0 0.1
2015-Aug-27 06:30N 41°20' E 002°11'7 6.8
2015-Aug-27 05:29N 41°13' E 002°10'1010.4
2015-Aug-27 04:33N 41°04' E 002°07'1010.0
2015-Aug-27 03:33N 40°55' E 002°02'10 9.9
2015-Aug-27 02:31N 40°47' E 001°53'1010.7
2015-Aug-27 01:33N 40°41' E 001°42'4710.8
2015-Aug-26 21:12N 40°13' E 000°52'1010.8
2015-Aug-26 20:17N 40°07' E 000°42'910.7
2015-Aug-26 19:24N 40°01' E 000°32'41 2.6
2015-Aug-26 03:29N 39°39' W 000°13'58 9.8
2015-Aug-25 21:33N 40°11' E 000°51'1110.2
2015-Aug-25 20:31N 40°17' E 001°02'1010.0
2015-Aug-25 19:34N 40°23' E 001°12'1010.1
2015-Aug-25 18:33N 40°29' E 001°23'1010.3
2015-Aug-25 17:34N 40°35' E 001°33'1010.4
2015-Aug-25 16:33N 40°41' E 001°44'1010.3
2015-Aug-25 15:33N 40°48' E 001°55'10 9.7
2015-Aug-25 14:33N 40°56' E 002°02'10 9.8
2015-Aug-25 13:33N 41°05' E 002°05'14 1.1
2015-Aug-25 00:32N 41°14' E 002°20'1111.6
2015-Aug-24 23:32N 41°09' E 002°34'1211.4
2015-Aug-24 22:31N 41°03' E 002°47'1111.3
2015-Aug-24 21:33N 40°58' E 002°60'1111.2
2015-Aug-24 20:33N 40°52' E 003°13'1111.0
2015-Aug-24 19:33N 40°47' E 003°25'15710.3
2015-Aug-24 04:15N 39°31' E 006°26'11310.6
2015-Aug-23 17:32N 38°40' E 008°36'1211.2
2015-Aug-23 16:30N 38°40' E 008°51'  

Dump ship's entire track history